Time;durP1;ratioP1;P1;durP2;ratioP2;P2;SDS_P1;SDS_P2;PMS_P1;PMS_P2;Temp;Humidity;BMP_temperature;BMP_pressure;BME280_temperature;BME280_humidity;BME280_pressure;Samples;Min_cycle;Max_cycle;Signal;HPM_P1;HPM_P2
2022/08/09 00:00:06;;;;;;;7.45;4.35;;;17.50;99.90;;;;;;5097459;28;20505;-68
2022/08/09 00:02:38;;;;;;;4.70;4.10;;;17.40;99.90;;;;;;5111679;28;20082;-63
2022/08/09 00:05:16;;;;;;;6.90;3.50;;;17.30;99.90;;;;;;5111545;28;20098;-63
2022/08/09 00:08:05;;;;;;;6.70;3.92;;;17.30;99.90;;;;;;5111556;28;20044;-63
2022/08/09 00:10:37;;;;;;;6.18;4.20;;;17.20;99.90;;;;;;5111499;28;20548;-64
2022/08/09 00:13:05;;;;;;;9.57;4.00;;;17.20;99.90;;;;;;5112326;28;20043;-63
2022/08/09 00:15:46;;;;;;;;;;;17.20;99.90;;;;;;5097341;28;20077;-63
2022/08/09 00:18:29;;;;;;;7.20;3.92;;;17.10;99.90;;;;;;5112858;28;20287;-63
2022/08/09 00:21:03;;;;;;;5.50;3.30;;;17.10;99.90;;;;;;5111150;28;20046;-63
2022/08/09 00:23:33;;;;;;;6.38;3.53;;;17.00;99.90;;;;;;5111731;28;20051;-63
2022/08/09 00:26:20;;;;;;;6.28;3.90;;;17.00;99.90;;;;;;5111890;28;20104;-63
2022/08/09 00:28:59;;;;;;;4.05;3.58;;;16.90;99.90;;;;;;5111645;28;20083;-63
2022/08/09 00:31:26;;;;;;;8.65;3.97;;;16.90;99.90;;;;;;5111320;28;20051;-63
2022/08/09 00:34:13;;;;;;;4.72;3.35;;;16.90;99.90;;;;;;5111563;28;20491;-63
2022/08/09 00:36:40;;;;;;;4.80;3.78;;;16.90;99.90;;;;;;5093117;28;20491;-63
2022/08/09 00:39:08;;;;;;;5.78;3.65;;;16.80;99.90;;;;;;5101086;28;20059;-63
2022/08/09 00:41:55;;;;;;;6.53;4.10;;;16.80;99.90;;;;;;5111774;28;20044;-63
2022/08/09 00:44:42;;;;;;;4.63;3.47;;;16.70;99.90;;;;;;5110997;28;20055;-63
2022/08/09 00:47:13;;;;;;;6.93;3.45;;;16.70;99.90;;;;;;5095329;28;20059;-63
2022/08/09 00:49:41;;;;;;;4.47;3.85;;;16.70;99.90;;;;;;5111280;28;20048;-63
2022/08/09 00:52:18;;;;;;;4.57;3.42;;;16.60;99.90;;;;;;5110743;28;20090;-64
2022/08/09 00:54:47;;;;;;;4.32;3.55;;;16.60;99.90;;;;;;5111520;28;20055;-63
2022/08/09 00:57:15;;;;;;;5.30;3.72;;;16.60;99.90;;;;;;5113139;28;20043;-65
2022/08/09 01:00:02;;;;;;;5.18;3.40;;;16.50;99.90;;;;;;5092229;28;20040;-63
2022/08/09 01:02:48;;;;;;;5.45;3.85;;;16.50;99.90;;;;;;5076783;28;20054;-63
2022/08/09 01:05:31;;;;;;;4.40;3.67;;;16.50;99.90;;;;;;5074360;28;20357;-65
2022/08/09 01:08:58;;;;;;;7.40;4.10;;;16.40;99.90;;;;;;5076682;28;20048;-66
2022/08/09 01:11:58;;;;;;;4.80;3.97;;;16.40;99.90;;;;;;5063632;28;20097;-68
2022/08/09 01:14:41;;;;;;;3.95;3.50;;;16.40;99.90;;;;;;5090894;28;20044;-63
2022/08/09 01:17:18;;;;;;;6.47;3.88;;;16.30;99.90;;;;;;5094238;28;20499;-63
2022/08/09 01:20:05;;;;;;;8.45;4.43;;;16.30;99.90;;;;;;5115080;28;20054;-63
2022/08/09 01:22:51;;;;;;;5.65;4.03;;;16.30;99.90;;;;;;5114648;28;20051;-63
2022/08/09 01:25:32;;;;;;;7.40;4.15;;;16.30;99.90;;;;;;5115874;28;20048;-63
2022/08/09 01:28:08;;;;;;;4.40;3.50;;;16.30;99.90;;;;;;5115637;28;20058;-63
2022/08/09 01:30:37;;;;;;;5.60;4.10;;;16.20;99.90;;;;;;5114281;28;20051;-63
2022/08/09 01:33:20;;;;;;;4.97;3.70;;;16.20;99.90;;;;;;5099711;28;20130;-63
2022/08/09 01:35:52;;;;;;;5.68;3.97;;;16.10;99.90;;;;;;5098061;28;20058;-65
2022/08/09 01:38:22;;;;;;;5.38;4.25;;;16.10;99.90;;;;;;5097359;28;20071;-65
2022/08/09 01:41:01;;;;;;;6.57;3.97;;;16.10;99.90;;;;;;5097906;28;20564;-65
2022/08/09 01:43:36;;;;;;;9.73;4.65;;;16.00;99.90;;;;;;5082577;28;20053;-63
2022/08/09 01:46:30;;;;;;;5.70;4.57;;;16.00;99.90;;;;;;5114357;28;20058;-65
2022/08/09 01:49:00;;;;;;;5.78;3.78;;;16.00;99.90;;;;;;5098349;28;20044;-66
2022/08/09 01:51:41;;;;;;;4.75;3.53;;;16.00;99.90;;;;;;5113422;28;20047;-65
2022/08/09 01:54:10;;;;;;;5.18;4.05;;;15.90;99.90;;;;;;5115204;28;20380;-65
2022/08/09 01:56:39;;;;;;;6.70;4.38;;;15.90;99.90;;;;;;5114006;28;20394;-66
2022/08/09 01:59:08;;;;;;;4.90;3.92;;;15.90;99.90;;;;;;5113781;28;20131;-65
2022/08/09 02:01:36;;;;;;;5.32;3.65;;;15.80;99.90;;;;;;5097523;28;20079;-65
2022/08/09 02:04:23;;;;;;;5.57;3.97;;;15.80;99.90;;;;;;5084400;28;20082;-65
2022/08/09 02:09:51;;;;;;;6.47;3.70;;;15.80;99.90;;;;;;5101030;28;20054;-65
2022/08/09 02:12:29;;;;;;;6.05;4.03;;;15.70;99.90;;;;;;5113865;28;20051;-65
2022/08/09 02:14:58;;;;;;;6.13;3.90;;;15.70;99.90;;;;;;5097233;28;20165;-65
2022/08/09 02:17:26;;;;;;;7.18;4.35;;;15.70;99.90;;;;;;5113639;28;20047;-65
2022/08/09 02:20:13;;;;;;;6.38;3.95;;;15.60;99.90;;;;;;5114099;28;20075;-65
2022/08/09 02:23:07;;;;;;;6.00;3.80;;;15.60;99.90;;;;;;5098012;28;20097;-65
2022/08/09 02:25:37;;;;;;;4.70;3.63;;;15.50;99.90;;;;;;5113353;28;20054;-65
2022/08/09 02:28:14;;;;;;;4.78;3.83;;;15.50;99.90;;;;;;5112999;28;20052;-71
2022/08/09 02:30:46;;;;;;;4.88;4.18;;;15.50;99.90;;;;;;5113562;28;20362;-65
2022/08/09 02:33:18;;;;;;;5.97;3.72;;;15.40;99.90;;;;;;5097251;28;20058;-65
2022/08/09 02:35:49;;;;;;;5.93;3.97;;;15.40;99.90;;;;;;5113453;28;20052;-69
2022/08/09 02:38:32;;;;;;;8.32;4.35;;;15.40;99.90;;;;;;5113109;28;20079;-65
2022/08/09 02:41:12;;;;;;;5.97;4.00;;;15.30;99.90;;;;;;5096923;28;20055;-66
2022/08/09 02:43:41;;;;;;;5.70;4.43;;;15.30;99.90;;;;;;5112951;28;20044;-65
2022/08/09 02:46:22;;;;;;;6.75;4.15;;;15.30;99.90;;;;;;5113332;28;20047;-65
2022/08/09 02:48:50;;;;;;;4.43;4.03;;;15.30;99.90;;;;;;5096164;28;20509;-65
2022/08/09 02:51:17;;;;;;;5.50;4.40;;;15.30;99.90;;;;;;5112729;28;20078;-65
2022/08/09 02:53:52;;;;;;;7.18;4.22;;;15.30;99.90;;;;;;5112536;28;20087;-65
2022/08/09 02:56:27;;;;;;;5.80;4.57;;;15.20;99.90;;;;;;5112802;28;20120;-65
2022/08/09 02:58:54;;;;;;;5.25;4.63;;;15.20;99.90;;;;;;5112203;28;20051;-64
2022/08/09 03:01:21;;;;;;;4.90;4.15;;;15.20;99.90;;;;;;5096066;28;20050;-65
2022/08/09 03:04:09;;;;;;;5.28;3.72;;;15.20;99.90;;;;;;5113226;28;20086;-65
2022/08/09 03:06:44;;;;;;;4.88;3.97;;;15.10;99.90;;;;;;5097102;28;20222;-65
2022/08/09 03:09:15;;;;;;;6.40;4.05;;;15.10;99.90;;;;;;5095925;28;20048;-65
2022/08/09 03:11:43;;;;;;;5.03;4.13;;;15.10;99.90;;;;;;5095755;28;20483;-65
2022/08/09 03:14:30;;;;;;;5.13;4.13;;;15.10;99.90;;;;;;5098687;28;20481;-65
2022/08/09 03:16:58;;;;;;;6.57;4.90;;;15.00;99.90;;;;;;5112447;28;20462;-65
2022/08/09 03:19:28;;;;;;;5.93;5.00;;;15.00;99.90;;;;;;5075516;28;20056;-65
2022/08/09 03:22:15;;;;;;;7.43;4.47;;;15.00;99.90;;;;;;5078454;28;20062;-65
2022/08/09 03:25:02;;;;;;;5.25;4.00;;;15.00;99.90;;;;;;5091881;28;20048;-65
2022/08/09 03:27:50;;;;;;;5.50;4.40;;;15.00;99.90;;;;;;5097388;28;20105;-65
2022/08/09 03:30:17;;;;;;;4.73;4.27;;;14.90;99.90;;;;;;5112119;28;20059;-65
2022/08/09 03:33:01;;;;;;;5.40;4.20;;;14.80;99.90;;;;;;5083247;28;20054;-64
2022/08/09 03:35:42;;;;;;;5.32;4.57;;;14.80;99.90;;;;;;5107693;28;20134;-64
2022/08/09 03:38:29;;;;;;;6.50;4.32;;;14.80;99.90;;;;;;5077103;28;20044;-65
2022/08/09 03:40:56;;;;;;;5.53;4.75;;;14.80;99.90;;;;;;5091444;28;20044;-65
2022/08/09 03:43:24;;;;;;;5.70;4.85;;;14.80;99.90;;;;;;5092558;28;20048;-65
2022/08/09 03:45:57;;;;;;;5.47;4.80;;;14.90;99.90;;;;;;5091420;28;20048;-65
2022/08/09 03:48:44;;;;;;;5.15;4.65;;;14.80;99.90;;;;;;5092942;28;20092;-65
2022/08/09 03:51:18;;;;;;;4.80;3.92;;;14.80;99.90;;;;;;5112954;28;20074;-65
2022/08/09 03:54:05;;;;;;;6.05;4.72;;;14.80;99.90;;;;;;5112302;28;20445;-65
2022/08/09 03:56:38;;;;;;;6.63;4.82;;;14.80;99.90;;;;;;5111607;28;20051;-64
2022/08/09 03:59:08;;;;;;;5.13;4.38;;;14.80;99.90;;;;;;5087402;28;20052;-65
2022/08/09 04:01:42;;;;;;;6.63;4.45;;;14.80;99.90;;;;;;5076056;28;20052;-65
2022/08/09 04:04:11;;;;;;;6.88;4.22;;;14.70;99.90;;;;;;5091547;28;20050;-65
2022/08/09 04:06:41;;;;;;;5.30;3.83;;;14.70;99.90;;;;;;5074817;28;20465;-67
2022/08/09 04:09:14;;;;;;;4.97;4.45;;;14.70;99.90;;;;;;5059757;28;20491;-64
2022/08/09 04:12:10;;;;;;;5.00;4.30;;;14.60;99.90;;;;;;5091141;28;20048;-69
2022/08/09 04:14:57;;;;;;;5.47;4.20;;;14.60;99.90;;;;;;5092360;28;20040;-64
2022/08/09 04:17:38;;;;;;;5.88;4.20;;;14.60;99.90;;;;;;5096608;28;20043;-65
2022/08/09 04:20:10;;;;;;;6.80;4.60;;;14.50;99.90;;;;;;5111571;28;20085;-65
2022/08/09 04:22:38;;;;;;;4.53;3.85;;;14.50;99.90;;;;;;5111128;28;20044;-65
2022/08/09 04:25:10;;;;;;;6.75;4.70;;;14.50;99.90;;;;;;5111101;28;20051;-65
2022/08/09 04:27:40;;;;;;;4.50;4.00;;;14.50;99.90;;;;;;5111022;28;20043;-65
2022/08/09 04:30:12;;;;;;;4.75;4.22;;;14.40;99.90;;;;;;5111347;28;20982;-65
2022/08/09 04:32:39;;;;;;;6.05;4.47;;;14.50;99.90;;;;;;5095208;28;20483;-64
2022/08/09 04:35:12;;;;;;;7.10;4.93;;;14.40;99.90;;;;;;5079284;28;20052;-65
2022/08/09 04:37:41;;;;;;;7.80;4.73;;;14.40;99.90;;;;;;5110926;28;20092;-64
2022/08/09 04:40:12;;;;;;;5.05;4.55;;;14.50;99.90;;;;;;5111434;28;20048;-65
2022/08/09 04:42:59;;;;;;;5.88;4.55;;;14.40;99.90;;;;;;5112426;28;20120;-65
2022/08/09 04:45:26;;;;;;;4.82;3.97;;;14.50;99.90;;;;;;5112241;28;20050;-65
2022/08/09 04:47:58;;;;;;;6.78;4.88;;;14.40;99.90;;;;;;5112254;28;20487;-65
2022/08/09 04:50:32;;;;;;;6.80;4.75;;;14.40;99.90;;;;;;5113411;28;20052;-65
2022/08/09 04:53:06;;;;;;;7.43;5.53;;;14.40;99.90;;;;;;5114935;28;20100;-64
2022/08/09 04:55:40;;;;;;;4.95;4.45;;;14.40;99.90;;;;;;5115522;28;20059;-65
2022/08/09 04:58:25;;;;;;;7.82;4.93;;;14.50;99.90;;;;;;5115814;28;20043;-65
2022/08/09 05:00:52;;;;;;;7.15;5.20;;;14.50;99.90;;;;;;5115086;28;20430;-64
2022/08/09 05:03:20;;;;;;;6.82;5.15;;;14.50;99.90;;;;;;5114436;28;20050;-65
2022/08/09 05:06:07;;;;;;;7.10;4.95;;;14.60;99.90;;;;;;5100898;28;20109;-69
2022/08/09 05:08:34;;;;;;;5.47;4.28;;;14.60;99.90;;;;;;5114040;28;20051;-65
2022/08/09 05:11:02;;;;;;;5.78;4.70;;;14.60;99.90;;;;;;5115608;28;20074;-66
2022/08/09 05:13:32;;;;;;;5.40;4.90;;;14.60;99.90;;;;;;5115591;28;20437;-66
2022/08/09 05:16:04;;;;;;;6.57;4.70;;;14.70;99.90;;;;;;5114972;28;20117;-65
2022/08/09 05:18:32;;;;;;;7.47;5.15;;;14.90;99.90;;;;;;5115765;28;20126;-65
2022/08/09 05:21:19;;;;;;;5.78;4.85;;;15.30;99.90;;;;;;5116239;28;20160;-65
2022/08/09 05:23:51;;;;;;;5.40;4.82;;;15.70;99.90;;;;;;5114517;28;20120;-63
2022/08/09 05:26:27;;;;;;;5.07;3.95;;;16.10;99.90;;;;;;5115841;27;20047;-64
2022/08/09 05:29:03;;;;;;;5.50;4.07;;;16.50;99.90;;;;;;5114524;28;20477;-62
2022/08/09 05:31:30;;;;;;;6.93;4.55;;;16.80;99.90;;;;;;5114714;28;20051;-62
2022/08/09 05:34:13;;;;;;;6.20;4.93;;;17.10;99.90;;;;;;5114519;28;20044;-62
2022/08/09 05:36:43;;;;;;;8.45;5.65;;;17.40;99.90;;;;;;5098396;28;20105;-62
2022/08/09 05:39:14;;;;;;;6.47;4.63;;;17.80;99.90;;;;;;5114353;28;20167;-64
2022/08/09 05:41:54;;;;;;;7.25;4.70;;;18.10;99.90;;;;;;5115544;28;20477;-63
2022/08/09 05:44:21;;;;;;;5.32;3.97;;;18.40;99.90;;;;;;5114329;28;20048;-63
2022/08/09 05:46:58;;;;;;;5.22;4.07;;;18.60;99.90;;;;;;5115064;28;20101;-66
2022/08/09 05:49:26;;;;;;;6.70;4.32;;;18.90;99.90;;;;;;5097369;28;20411;-63
2022/08/09 05:52:13;;;;;;;6.50;4.40;;;19.10;99.90;;;;;;5113397;28;20047;-63
2022/08/09 05:54:41;;;;;;;6.43;4.15;;;19.10;99.90;;;;;;5115445;28;20403;-63
2022/08/09 05:57:08;;;;;;;6.30;4.43;;;19.00;99.90;;;;;;5114956;28;20051;-64
2022/08/09 05:59:43;;;;;;;7.75;4.72;;;18.90;99.90;;;;;;5105176;28;20047;-62
2022/08/09 06:02:10;;;;;;;9.90;6.20;;;18.70;99.90;;;;;;5114486;28;20046;-66
2022/08/09 06:04:42;;;;;;;9.88;6.55;;;18.60;99.90;;;;;;5115269;28;20051;-62
2022/08/09 06:07:11;;;;;;;13.25;6.90;;;18.50;99.90;;;;;;5112929;28;20040;-63
2022/08/09 06:09:48;;;;;;;11.55;7.63;;;18.40;99.90;;;;;;5114787;27;20132;-63
2022/08/09 06:12:28;;;;;;;20.95;11.13;;;18.40;99.90;;;;;;5114683;28;20054;-63
2022/08/09 06:14:55;;;;;;;17.25;10.70;;;18.30;99.90;;;;;;5113692;28;20040;-63
2022/08/09 06:17:27;;;;;;;17.30;12.43;;;18.20;99.90;;;;;;5113537;28;20070;-67
2022/08/09 06:20:07;;;;;;;16.45;12.07;;;18.10;99.90;;;;;;5113624;28;20043;-62
2022/08/09 06:22:34;;;;;;;15.02;13.50;;;18.00;99.90;;;;;;5113585;28;20050;-63
2022/08/09 06:25:02;;;;;;;16.40;14.57;;;17.90;99.90;;;;;;5114767;28;20044;-63
2022/08/09 06:27:29;;;;;;;20.63;13.65;;;17.80;99.90;;;;;;5112949;28;20054;-63
2022/08/09 06:30:09;;;;;;;25.80;15.35;;;17.80;99.90;;;;;;5114044;28;20126;-63
2022/08/09 06:32:40;;;;;;;17.77;12.18;;;17.90;99.90;;;;;;5113354;28;20085;-63
2022/08/09 06:35:27;;;;;;;20.13;13.63;;;17.80;99.90;;;;;;5099526;28;20047;-65
2022/08/09 06:38:14;;;;;;;15.50;11.63;;;17.90;99.90;;;;;;5113579;28;20051;-64
2022/08/09 06:40:41;;;;;;;14.43;11.88;;;17.90;99.90;;;;;;5113015;28;20384;-63
2022/08/09 06:43:09;;;;;;;19.00;13.25;;;18.00;99.90;;;;;;5112763;28;20450;-63
2022/08/09 06:45:37;;;;;;;17.38;13.68;;;18.10;99.90;;;;;;5114248;27;20058;-63
2022/08/09 06:48:24;;;;;;;17.23;13.23;;;18.10;99.90;;;;;;5113676;28;20050;-63
2022/08/09 06:50:57;;;;;;;17.27;12.80;;;18.10;99.90;;;;;;5114210;28;20106;-63
2022/08/09 06:53:24;;;;;;;16.48;12.32;;;18.10;99.90;;;;;;5095647;28;20047;-63
2022/08/09 06:55:52;;;;;;;19.15;12.38;;;18.20;99.90;;;;;;5114306;28;20083;-63
2022/08/09 06:58:18;;;;;;;18.23;13.20;;;18.30;99.90;;;;;;5095657;28;20048;-63
2022/08/09 07:01:05;;;;;;;19.95;12.63;;;18.30;99.90;;;;;;5092708;28;20044;-63
2022/08/09 07:03:34;;;;;;;16.65;12.25;;;18.40;99.90;;;;;;5105449;28;20126;-63
2022/08/09 07:06:18;;;;;;;13.93;12.45;;;18.60;99.90;;;;;;5112605;28;20059;-63
2022/08/09 07:08:45;;;;;;;18.23;12.27;;;18.80;99.90;;;;;;5102322;28;20492;-63
2022/08/09 07:11:15;;;;;;;14.95;12.55;;;18.90;99.90;;;;;;5092092;28;20548;-63
2022/08/09 07:13:49;;;;;;;21.35;13.63;;;19.00;99.90;;;;;;5091460;28;20466;-63
2022/08/09 07:16:32;;;;;;;17.85;13.65;;;19.00;99.90;;;;;;5078168;28;20052;-63
2022/08/09 07:19:14;;;;;;;24.58;12.38;;;19.10;99.90;;;;;;5112428;28;20048;-63
2022/08/09 07:21:49;;;;;;;19.00;13.35;;;19.10;99.90;;;;;;5097161;28;20044;-63
2022/08/09 07:24:27;;;;;;;23.92;16.05;;;19.20;99.90;;;;;;5113448;28;20051;-63
2022/08/09 07:27:05;;;;;;;15.40;13.55;;;19.20;99.90;;;;;;5112586;28;20471;-63
2022/08/09 07:29:53;;;;;;;22.90;13.93;;;19.10;99.90;;;;;;5112467;28;20079;-63
2022/08/09 07:32:24;;;;;;;24.15;14.82;;;19.20;99.90;;;;;;5113371;28;20048;-63
2022/08/09 07:35:10;;;;;;;22.15;13.50;;;19.40;99.90;;;;;;5113562;28;20130;-63
2022/08/09 07:37:41;;;;;;;16.08;14.25;;;19.40;99.90;;;;;;5096267;28;20044;-63
2022/08/09 07:40:13;;;;;;;23.55;13.50;;;19.40;99.90;;;;;;5111916;28;20100;-63
2022/08/09 07:42:57;;;;;;;20.92;13.30;;;19.50;99.90;;;;;;5095962;28;20078;-63
2022/08/09 07:45:26;;;;;;;17.52;13.07;;;19.40;99.90;;;;;;5112998;28;20051;-63
2022/08/09 07:48:05;;;;;;;26.60;15.10;;;19.40;99.90;;;;;;5075756;28;20469;-63
2022/08/09 07:50:32;;;;;;;17.85;12.90;;;19.40;99.90;;;;;;5091182;28;20052;-63
2022/08/09 07:53:02;;;;;;;17.33;13.50;;;19.40;99.90;;;;;;5075247;28;20442;-63
2022/08/09 07:55:30;;;;;;;16.73;12.82;;;19.50;99.90;;;;;;5074631;28;20047;-63
2022/08/09 07:58:18;;;;;;;14.38;11.57;;;19.60;99.90;;;;;;5112124;28;20051;-63
2022/08/09 08:00:51;;;;;;;16.35;12.32;;;19.70;99.90;;;;;;5091587;28;20113;-63
2022/08/09 08:03:32;;;;;;;17.05;11.75;;;19.90;99.90;;;;;;5092433;28;20399;-63
2022/08/09 08:06:03;;;;;;;12.82;9.50;;;20.10;99.90;;;;;;5091620;28;20058;-63
2022/08/09 08:08:31;;;;;;;17.83;10.20;;;20.20;99.90;;;;;;5090828;28;20044;-64
2022/08/09 08:11:17;;;;;;;14.15;9.25;;;20.10;99.90;;;;;;5078067;28;20369;-63
2022/08/09 08:14:04;;;;;;;16.88;10.02;;;20.10;99.90;;;;;;5077785;28;20098;-63
2022/08/09 08:16:32;;;;;;;15.85;8.60;;;20.10;99.90;;;;;;5092052;28;20052;-63
2022/08/09 08:19:00;;;;;;;13.55;9.05;;;20.10;99.90;;;;;;5091903;28;20091;-63
2022/08/09 08:21:29;;;;;;;13.98;8.77;;;20.00;99.90;;;;;;5112754;28;20044;-68
2022/08/09 08:23:56;;;;;;;17.42;8.90;;;20.00;99.90;;;;;;5095014;28;20039;-63
2022/08/09 08:26:37;;;;;;;10.40;7.60;;;20.20;99.90;;;;;;5118131;28;20100;-64
2022/08/09 08:29:20;;;;;;;8.73;7.07;;;20.30;99.90;;;;;;5109851;28;20089;-63
2022/08/09 08:31:54;;;;;;;6.97;5.72;;;20.40;99.90;;;;;;5097845;28;20489;-63
2022/08/09 08:34:31;;;;;;;11.65;4.93;;;20.50;99.90;;;;;;5099390;28;20048;-64
2022/08/09 08:36:59;;;;;;;8.13;5.18;;;20.60;99.90;;;;;;5099132;28;20051;-63
2022/08/09 08:39:27;;;;;;;8.85;5.95;;;20.70;99.90;;;;;;5097557;28;20052;-63
2022/08/09 08:41:54;;;;;;;11.05;5.85;;;20.80;99.90;;;;;;5099038;28;20390;-63
2022/08/09 08:44:24;;;;;;;12.27;5.22;;;20.90;99.90;;;;;;5097454;28;20040;-63
2022/08/09 08:46:55;;;;;;;8.27;5.00;;;20.80;99.90;;;;;;5097808;28;20052;-63
2022/08/09 08:49:31;;;;;;;7.82;5.72;;;20.80;99.90;;;;;;5097683;28;20403;-65
2022/08/09 08:52:18;;;;;;;10.18;5.38;;;20.80;99.90;;;;;;5083321;28;20134;-63
2022/08/09 08:55:05;;;;;;;8.77;5.28;;;20.90;99.90;;;;;;5097409;28;20113;-63
2022/08/09 08:57:32;;;;;;;9.48;5.45;;;20.80;99.90;;;;;;5101621;28;20079;-63
2022/08/09 09:00:02;;;;;;;8.75;6.50;;;20.90;99.90;;;;;;5117669;28;20517;-64
2022/08/09 09:02:49;;;;;;;7.93;4.50;;;20.90;99.90;;;;;;5118405;28;20394;-64
2022/08/09 09:05:22;;;;;;;7.35;6.40;;;20.80;99.90;;;;;;5102264;28;20066;-63
2022/08/09 09:08:10;;;;;;;7.40;5.32;;;20.80;99.90;;;;;;5117882;28;20105;-64
2022/08/09 09:10:58;;;;;;;10.30;5.90;;;20.70;99.90;;;;;;5102403;28;20131;-63
2022/08/09 09:13:25;;;;;;;8.70;5.50;;;20.70;99.90;;;;;;5115732;28;20055;-71
2022/08/09 09:16:08;;;;;;;7.22;3.10;;;20.70;99.90;;;;;;5103106;28;20050;-64
2022/08/09 09:18:35;;;;;;;7.80;3.58;;;20.80;99.90;;;;;;5118038;28;20108;-64
2022/08/09 09:21:05;;;;;;;7.95;3.60;;;20.90;99.90;;;;;;5119124;28;20139;-64
2022/08/09 09:23:43;;;;;;;6.00;4.20;;;21.00;99.90;;;;;;5117419;28;20044;-64
2022/08/09 09:26:23;;;;;;;6.50;3.28;;;21.00;99.90;;;;;;5118890;27;20043;-64
2022/08/09 09:28:51;;;;;;;9.00;3.50;;;21.00;99.90;;;;;;5117457;28;20483;-64
2022/08/09 09:31:36;;;;;;;7.53;3.40;;;21.10;99.90;;;;;;5117574;28;20093;-64
2022/08/09 09:34:23;;;;;;;5.25;3.25;;;21.10;99.90;;;;;;5090325;28;20051;-63
2022/08/09 09:36:55;;;;;;;6.60;3.30;;;21.10;99.90;;;;;;5115377;28;20048;-64
2022/08/09 09:39:26;;;;;;;7.45;3.47;;;21.20;99.90;;;;;;5113916;28;20044;-65
2022/08/09 09:42:24;;;;;;;13.68;4.70;;;21.30;99.90;;;;;;5099860;28;20120;-64
2022/08/09 09:44:56;;;;;;;4.65;3.13;;;21.30;99.90;;;;;;5093676;28;20625;-65
2022/08/09 09:47:24;;;;;;;9.25;3.75;;;21.40;99.90;;;;;;5097140;28;20055;-64
2022/08/09 09:49:56;;;;;;;7.53;3.47;;;21.40;99.90;;;;;;5115868;28;20047;-64
2022/08/09 09:52:51;;;;;;;9.23;3.67;;;21.50;99.90;;;;;;5115722;27;20449;-64
2022/08/09 09:55:20;;;;;;;7.40;3.83;;;21.60;99.90;;;;;;5114450;28;20051;-64
2022/08/09 09:58:03;;;;;;;7.00;3.15;;;21.60;99.90;;;;;;5096825;28;20051;-64
2022/08/09 10:01:03;;;;;;;8.02;3.97;;;21.60;99.90;;;;;;5114187;28;20140;-64
2022/08/09 10:03:52;;;;;;;6.05;3.28;;;21.60;99.90;;;;;;5114534;28;20376;-64
2022/08/09 10:06:28;;;;;;;11.73;3.65;;;21.80;99.90;;;;;;5082370;28;20542;-71
2022/08/09 10:09:00;;;;;;;8.43;3.13;;;21.80;99.90;;;;;;5114556;28;20062;-64
2022/08/09 10:11:29;;;;;;;5.97;3.05;;;21.90;99.90;;;;;;5114762;28;20525;-64
2022/08/09 10:14:34;;;;;;;8.03;2.80;;;21.90;99.90;;;;;;5086191;28;20044;-64
2022/08/09 10:17:11;;;;;;;6.60;3.05;;;22.00;99.90;;;;;;5096962;28;20044;-64
2022/08/09 10:19:59;;;;;;;6.00;2.72;;;22.10;99.90;;;;;;5100109;28;20093;-64
2022/08/09 10:22:36;;;;;;;4.68;2.72;;;22.10;99.90;;;;;;5113578;28;20448;-64
2022/08/09 10:25:07;;;;;;;7.70;2.70;;;22.20;99.90;;;;;;5113191;28;20543;-64
2022/08/09 10:27:43;;;;;;;7.30;2.53;;;22.30;99.90;;;;;;5097339;28;20052;-64
2022/08/09 10:30:23;;;;;;;4.00;2.47;;;22.40;99.90;;;;;;5113061;28;20244;-64
2022/08/09 10:33:10;;;;;;;13.80;2.97;;;22.40;99.90;;;;;;5114411;28;20143;-63
2022/08/09 10:35:57;;;;;;;13.43;3.38;;;22.50;99.90;;;;;;5113359;28;20097;-64
2022/08/09 10:38:27;;;;;;;6.05;2.70;;;22.70;99.90;;;;;;5096648;28;20054;-64
2022/08/09 10:41:15;;;;;;;5.65;3.28;;;22.80;99.90;;;;;;5114182;28;20048;-64
2022/08/09 10:43:44;;;;;;;;;;;22.90;99.90;;;;;;5113253;28;20069;-64
2022/08/09 10:46:54;;;;;;;5.60;3.25;;;23.00;99.90;;;;;;5114108;28;19930;-64
2022/08/09 10:49:45;;;;;;;5.55;2.35;;;23.20;99.90;;;;;;5092442;28;20517;-64
2022/08/09 10:52:32;;;;;;;6.30;2.35;;;23.20;99.90;;;;;;5093571;28;20052;-64
2022/08/09 10:55:22;;;;;;;7.68;3.10;;;23.20;99.90;;;;;;5093422;28;20079;-64
2022/08/09 10:57:50;;;;;;;3.65;2.40;;;23.20;99.90;;;;;;5097944;28;20059;-64
2022/08/09 11:00:30;;;;;;;13.18;2.85;;;23.20;99.90;;;;;;5075892;28;20055;-64
2022/08/09 11:02:57;;;;;;;5.45;2.60;;;23.40;99.90;;;;;;5093425;28;20048;-64
2022/08/09 11:06:17;;;;;;;8.43;2.38;;;23.40;99.90;;;;;;5093913;28;20057;-64
2022/08/09 11:08:46;;;;;;;11.93;2.65;;;23.60;99.90;;;;;;5090774;28;20105;-69
2022/08/09 11:11:18;;;;;;;8.35;2.58;;;23.60;99.90;;;;;;5093484;28;20052;-64
2022/08/09 11:13:46;;;;;;;5.78;2.42;;;23.70;99.90;;;;;;5092227;28;20071;-64
2022/08/09 11:16:37;;;;;;;6.97;2.55;;;23.70;99.90;;;;;;5110002;28;20047;-64
2022/08/09 11:19:05;;;;;;;6.05;2.47;;;23.70;99.90;;;;;;5102188;28;20436;-65
2022/08/09 11:21:59;;;;;;;6.38;2.50;;;23.90;99.90;;;;;;5075969;28;20506;-64
2022/08/09 11:25:03;;;;;;;5.45;2.00;;;23.90;99.90;;;;;;5091526;28;20518;-64
2022/08/09 11:27:31;;;;;;;4.40;2.42;;;23.90;99.90;;;;;;5078473;28;20452;-64
2022/08/09 11:30:21;;;;;;;8.80;2.33;;;24.10;99.90;;;;;;5113417;28;20055;-64
2022/08/09 11:33:09;;;;;;;6.53;2.72;;;24.20;99.90;;;;;;5112424;28;20169;-64
2022/08/09 11:36:06;;;;;;;5.73;2.70;;;24.30;99.50;;;;;;5112102;28;20495;-64
2022/08/09 11:38:34;;;;;;;7.80;2.38;;;24.40;99.90;;;;;;5112183;28;20294;-65
2022/08/09 11:41:10;;;;;;;6.43;1.98;;;24.40;98.20;;;;;;5096261;28;20043;-65
2022/08/09 11:43:47;;;;;;;4.72;2.00;;;24.50;98.90;;;;;;5111913;28;20558;-65
2022/08/09 11:46:14;;;;;;;8.00;2.90;;;24.70;99.40;;;;;;5112294;28;20039;-64
2022/08/09 11:48:58;;;;;;;3.78;2.30;;;24.80;98.70;;;;;;5097288;28;20051;-64
2022/08/09 11:51:26;;;;;;;5.22;2.60;;;24.80;97.60;;;;;;5111870;28;20056;-64
2022/08/09 11:54:16;;;;;;;4.15;2.38;;;24.80;96.60;;;;;;5111583;28;20955;-64
2022/08/09 11:57:37;;;;;;;4.28;2.40;;;24.60;96.30;;;;;;5112354;28;20071;-64
2022/08/09 12:00:26;;;;;;;6.70;2.47;;;24.60;95.50;;;;;;5109428;28;20054;-65
2022/08/09 12:02:55;;;;;;;7.15;2.95;;;24.60;96.10;;;;;;5111626;28;20051;-64
2022/08/09 12:05:33;;;;;;;7.50;2.58;;;24.70;95.70;;;;;;5111629;28;20043;-64
2022/08/09 12:08:08;;;;;;;3.83;2.15;;;24.70;96.10;;;;;;5108369;28;20047;-66
2022/08/09 12:10:53;;;;;;;10.88;2.45;;;24.90;96.20;;;;;;5100184;28;20491;-65
2022/08/09 12:13:33;;;;;;;5.85;2.97;;;25.00;95.30;;;;;;5091018;28;20094;-65
2022/08/09 12:16:30;;;;;;;5.13;2.50;;;25.10;95.20;;;;;;5077887;28;20040;-64
2022/08/09 12:19:07;;;;;;;5.50;2.38;;;25.10;95.50;;;;;;5110192;28;20055;-64
2022/08/09 12:21:50;;;;;;;6.18;2.80;;;25.20;95.90;;;;;;5112137;28;20040;-65
2022/08/09 12:24:22;;;;;;;4.90;2.83;;;25.30;95.00;;;;;;5112070;28;20051;-65
2022/08/09 12:26:50;;;;;;;5.97;2.58;;;25.20;95.30;;;;;;5111342;28;20054;-64
2022/08/09 12:29:36;;;;;;;5.30;2.67;;;25.20;95.40;;;;;;5112317;28;20117;-64
2022/08/09 12:32:25;;;;;;;9.75;3.20;;;25.20;95.90;;;;;;5112375;28;20043;-65
2022/08/09 12:34:56;;;;;;;7.68;3.10;;;25.20;94.40;;;;;;5113712;28;20079;-66
2022/08/09 12:37:32;;;;;;;7.80;3.95;;;25.20;95.00;;;;;;5111885;28;20054;-69
2022/08/09 12:40:17;;;;;;;7.57;3.10;;;25.20;94.90;;;;;;5083749;28;20079;-65
2022/08/09 12:42:44;;;;;;;6.40;2.55;;;25.30;95.30;;;;;;5111888;28;20052;-65
2022/08/09 12:45:15;;;;;;;6.18;2.30;;;25.40;94.80;;;;;;5112767;28;20048;-65
2022/08/09 12:48:03;;;;;;;8.88;2.88;;;25.50;95.20;;;;;;5091544;28;20050;-65
2022/08/09 12:50:30;;;;;;;8.55;3.90;;;25.70;95.20;;;;;;5091337;28;20048;-65
2022/08/09 12:52:57;;;;;;;6.00;2.80;;;25.70;94.60;;;;;;5074583;28;20098;-65
2022/08/09 12:55:44;;;;;;;6.10;2.42;;;25.80;93.00;;;;;;5090823;28;20040;-65
2022/08/09 12:58:32;;;;;;;11.60;2.88;;;25.60;93.90;;;;;;5103797;28;20052;-64
2022/08/09 13:01:00;;;;;;;8.30;2.55;;;25.70;94.20;;;;;;5094037;28;20043;-65
2022/08/09 13:03:32;;;;;;;6.00;2.47;;;25.80;93.50;;;;;;5079040;28;20073;-62
2022/08/09 13:06:31;;;;;;;4.78;2.65;;;25.90;92.40;;;;;;5089188;28;20486;-62
2022/08/09 13:09:22;;;;;;;6.95;2.42;;;25.90;92.50;;;;;;5090445;28;20555;-63
2022/08/09 13:11:53;;;;;;;4.25;2.45;;;25.80;92.00;;;;;;5092175;28;20075;-63
2022/08/09 13:14:28;;;;;;;7.00;2.67;;;25.70;93.00;;;;;;5095303;28;20054;-63
2022/08/09 13:17:14;;;;;;;7.38;3.58;;;25.70;92.80;;;;;;5096448;28;20055;-63
2022/08/09 13:20:05;;;;;;;9.05;2.60;;;25.80;93.20;;;;;;5101074;28;20054;-64
2022/08/09 13:22:52;;;;;;;8.63;2.47;;;26.00;92.60;;;;;;5110224;28;20044;-64
2022/08/09 13:25:40;;;;;;;9.30;2.30;;;25.90;91.70;;;;;;5094245;28;20086;-64
2022/08/09 13:28:10;;;;;;;6.28;2.83;;;25.80;91.30;;;;;;5102620;28;20066;-64
2022/08/09 13:30:44;;;;;;;4.75;2.10;;;25.80;91.20;;;;;;5115508;28;20048;-64
2022/08/09 13:33:31;;;;;;;4.38;2.50;;;25.70;91.20;;;;;;5100607;28;20043;-63
2022/08/09 13:36:19;;;;;;;6.78;2.05;;;25.70;90.60;;;;;;5116200;28;20089;-64